Map

Track Data

SID SEASON NUMBER BASIN SUBBASIN NAME ISO_TIME NATURE LAT LON WMO_WIND WMO_PRES WMO_AGENCY TRACK_TYPE DIST2LAND LANDFALL IFLAG USA_AGENCY USA_ATCF_ID USA_LAT USA_LON USA_RECORD USA_STATUS USA_WIND USA_PRES USA_SSHS USA_R34_NE USA_R34_SE USA_R34_SW USA_R34_NW USA_R50_NE USA_R50_SE USA_R50_SW USA_R50_NW USA_R64_NE USA_R64_SE USA_R64_SW USA_R64_NW USA_POCI USA_ROCI USA_RMW USA_EYE TOKYO_LAT TOKYO_LON TOKYO_GRADE TOKYO_WIND TOKYO_PRES TOKYO_R50_DIR TOKYO_R50_LONG TOKYO_R50_SHORT TOKYO_R30_DIR TOKYO_R30_LONG TOKYO_R30_SHORT TOKYO_LAND CMA_LAT CMA_LON CMA_CAT CMA_WIND CMA_PRES HKO_LAT HKO_LON HKO_CAT HKO_WIND HKO_PRES NEWDELHI_LAT NEWDELHI_LON NEWDELHI_GRADE NEWDELHI_WIND NEWDELHI_PRES NEWDELHI_CI NEWDELHI_DP NEWDELHI_POCI REUNION_LAT REUNION_LON REUNION_TYPE REUNION_WIND REUNION_PRES REUNION_TNUM REUNION_CI REUNION_RMW REUNION_R34_NE REUNION_R34_SE REUNION_R34_SW REUNION_R34_NW REUNION_R50_NE REUNION_R50_SE REUNION_R50_SW REUNION_R50_NW REUNION_R64_NE REUNION_R64_SE REUNION_R64_SW REUNION_R64_NW BOM_LAT BOM_LON BOM_TYPE BOM_WIND BOM_PRES BOM_TNUM BOM_CI BOM_RMW BOM_R34_NE BOM_R34_SE BOM_R34_SW BOM_R34_NW BOM_R50_NE BOM_R50_SE BOM_R50_SW BOM_R50_NW BOM_R64_NE BOM_R64_SE BOM_R64_SW BOM_R64_NW BOM_ROCI BOM_POCI BOM_EYE BOM_POS_METHOD BOM_PRES_METHOD NADI_LAT NADI_LON NADI_CAT NADI_WIND NADI_PRES WELLINGTON_LAT WELLINGTON_LON WELLINGTON_WIND WELLINGTON_PRES DS824_LAT DS824_LON DS824_STAGE DS824_WIND DS824_PRES TD9636_LAT TD9636_LON TD9636_STAGE TD9636_WIND TD9636_PRES TD9635_LAT TD9635_LON TD9635_WIND TD9635_PRES TD9635_ROCI NEUMANN_LAT NEUMANN_LON NEUMANN_CLASS NEUMANN_WIND NEUMANN_PRES MLC_LAT MLC_LON MLC_CLASS MLC_WIND MLC_PRES USA_GUST BOM_GUST BOM_GUST_PER REUNION_GUST REUNION_GUST_PER USA_SEAHGT USA_SEARAD_NE USA_SEARAD_SE USA_SEARAD_SW USA_SEARAD_NW STORM_SPEED STORM_DIR
1933066S22155 1933 5 SP EA NOT_NAMED 1933-03-06 23:00:00 NR -22.3000 154.700 bom main 313 303 ______O___O___ -1 -22.4000 154.700 -22.2000 154.700 7 9 169
1933066S22155 1933 5 SP EA NOT_NAMED 1933-03-07 00:00:00 TS -22.4454 154.723 main 303 270 ______P__OP___ -1 -22.5207 154.730 -22.5000 154.700 TC -22.3427 154.728 7 8 169
1933066S22155 1933 5 SP EA NOT_NAMED 1933-03-07 03:00:00 TS -22.8347 154.816 main 270 241 ______P__PP___ -1 -22.8816 154.824 -22.8658 154.807 TC -22.7670 154.813 7 8 167
1933066S22155 1933 5 SP EA NOT_NAMED 1933-03-07 06:00:00 TS -23.2130 154.916 main 241 218 ______P__PP___ -1 -23.2378 154.923 -23.2277 154.919 TC -23.1771 154.907 7 8 165
1933066S22155 1933 5 SP EA NOT_NAMED 1933-03-07 09:00:00 TS -23.5767 155.029 main 218 213 ______P__PP___ -1 -23.5859 155.032 -23.5819 155.039 TC -23.5623 155.016 7 7 163
1933066S22155 1933 5 SP EA NOT_NAMED 1933-03-07 11:00:00 TS -23.8078 155.113 main 213 208 ______P__PO___ -1 -23.8118 155.112 -23.8117 155.126 TC -23.8000 155.100 7 7 161
1933066S22155 1933 5 SP EA NOT_NAMED 1933-03-07 12:00:00 TS -23.9196 155.158 main 217 207 ______P__PP___ -1 -23.9224 155.155 -23.9244 155.172 TC -23.9120 155.146 7 7 158
1933066S22155 1933 5 SP EA NOT_NAMED 1933-03-07 15:00:00 TS -24.2379 155.307 main 211 207 ______P__PP___ -1 -24.2438 155.298 -24.2514 155.320 TC -24.2185 155.302 7 7 154
1933066S22155 1933 5 SP EA NOT_NAMED 1933-03-07 18:00:00 TS -24.5279 155.481 main 219 216 ______P__PP___ -1 -24.5465 155.463 -24.5589 155.488 TC -24.4784 155.492 7 7 148
1933066S22155 1933 5 SP EA NOT_NAMED 1933-03-07 21:00:00 TS -24.7863 155.686 main 232 231 ______P__PP___ -1 -24.8270 155.655 -24.8431 155.680 TC -24.6888 155.722 7 6 142
1933066S22155 1933 5 SP EA NOT_NAMED 1933-03-07 23:00:00 TS -24.9392 155.841 1002 bom main 242 242 ______O__PO___ -1 -25.0000 155.800 1002 4 -25.0176 155.823 TC -24.8000 155.900 7 6 136
1933066S22155 1933 5 SP EA NOT_NAMED 1933-03-08 00:00:00 TS -25.0122 155.925 main 251 251 ______P__OP___ -1 -25.0819 155.878 -25.1000 155.900 TC 25 1002 -24.8547 155.998 7 6 129
1933066S22155 1933 5 SP EA NOT_NAMED 1933-03-08 03:00:00 TS -25.2062 156.203 main 282 282 ______P__PP___ -1 -25.3092 156.134 -25.3266 156.150 TC -24.9827 156.325 7 6 124
1933066S22155 1933 5 SP EA NOT_NAMED 1933-03-08 06:00:00 TS -25.3651 156.510 main 314 314 ______P__PP___ -1 -25.5099 156.417 -25.5239 156.427 TC -25.0614 156.685 7 6 117
1933066S22155 1933 5 SP EA NOT_NAMED 1933-03-08 09:00:00 TS -25.4919 156.835 main 346 346 ______P__PP___ -1 -25.6850 156.723 -25.6938 156.727 TC -25.0970 157.057 7 6 112
1933066S22155 1933 5 SP EA NOT_NAMED 1933-03-08 11:00:00 TS -25.5603 157.058 main 377 377 ______P__PO___ -1 -25.7882 156.936 -25.7927 156.937 TC -25.1000 157.300 7 6 108
1933066S22155 1933 5 SP EA NOT_NAMED 1933-03-08 12:00:00 TS -25.5901 157.168 main 387 387 ______P__PP___ -1 -25.8359 157.046 -25.8381 157.045 TC -25.0963 157.413 7 6 104
1933066S22155 1933 5 SP EA NOT_NAMED 1933-03-08 15:00:00 TS -25.6595 157.502 main 419 419 ______P__PP___ -1 -25.9635 157.382 -25.9589 157.375 TC -25.0563 157.747 7 6 101
1933066S22155 1933 5 SP EA NOT_NAMED 1933-03-08 18:00:00 TS -25.7065 157.838 main 448 448 ______P__PP___ -1 -26.0692 157.725 -26.0581 157.715 TC -24.9922 158.074 7 6 98
1933066S22155 1933 5 SP EA NOT_NAMED 1933-03-08 21:00:00 TS -25.7404 158.174 main 488 488 ______P__PP___ -1 -26.1542 158.071 -26.1378 158.058 TC -24.9292 158.392 7 6 96
1933066S22155 1933 5 SP EA NOT_NAMED 1933-03-08 23:00:00 TS -25.7604 158.395 bom main 509 509 ______O__PO___ -1 -26.2000 158.300 -26.1811 158.286 TC -24.9000 158.600 7 6 96
1933066S22155 1933 5 SP EA NOT_NAMED 1933-03-09 00:00:00 TS -25.7712 158.505 main 519 519 ______P__OP___ -1 -26.2264 158.411 -26.2000 158.400 TC -24.8871 158.705 7 6 96
1933066S22155 1933 5 SP EA NOT_NAMED 1933-03-09 03:00:00 TS -25.7991 158.833 main 549 549 ______P__PP___ -1 -26.2900 158.747 -26.2468 158.738 TC -24.8605 159.014 7 6 95
1933066S22155 1933 5 SP EA NOT_NAMED 1933-03-09 06:00:00 TS -25.8263 159.157 main 588 588 ______P__PP___ -1 -26.3323 159.086 -26.2802 159.070 TC -24.8666 159.315 7 6 96
1933066S22155 1933 5 SP EA NOT_NAMED 1933-03-09 09:00:00 TS -25.8606 159.477 main 620 620 ______P__PP___ -1 -26.3560 159.424 -26.3019 159.399 TC -24.9240 159.609 7 6 98
1933066S22155 1933 5 SP EA NOT_NAMED 1933-03-09 11:00:00 TS -25.8912 159.687 main 639 639 ______P__PO___ -1 -26.3628 159.647 -26.3108 159.616 TC -25.0000 159.800 7 6 101
1933066S22155 1933 5 SP EA NOT_NAMED 1933-03-09 12:00:00 TS -25.9139 159.792 main 649 649 ______P__PP___ -1 -26.3637 159.758 -26.3138 159.723 TC -25.0642 159.896 7 6 106
1933066S22155 1933 5 SP MM NOT_NAMED 1933-03-09 15:00:00 TS -25.9956 160.103 main 681 681 ______P__PP___ -1 -26.3583 160.085 -26.3177 160.045 TC -25.3109 160.179 7 6 107
1933066S22155 1933 5 SP MM NOT_NAMED 1933-03-09 18:00:00 TS -26.0844 160.407 main 696 676 ______P__PP___ -1 -26.3423 160.402 -26.3155 160.365 TC -25.5953 160.455 7 6 106
1933066S22155 1933 5 SP MM NOT_NAMED 1933-03-09 21:00:00 TS -26.1496 160.706 main 676 673 ______P__PP___ -1 -26.3187 160.706 -26.3090 160.683 TC -25.8610 160.724 7 5 102
1933066S22155 1933 5 SP MM NOT_NAMED 1933-03-09 23:00:00 TS -26.1806 160.899 bom main 673 667 ______O__PO___ -1 -26.3000 160.900 -26.3032 160.894 TC -26.0000 160.900 7 5 97
1933066S22155 1933 5 SP MM NOT_NAMED 1933-03-10 00:00:00 TS -26.1821 160.993 main 667 655 ______P__OP___ -1 -26.2901 160.994 -26.3000 161.000 TC -26.0446 160.989 7 5 93
1933066S22155 1933 5 SP MM NOT_NAMED 1933-03-10 03:00:00 NR -26.1950 161.259 main 649 638 ______P___P___ -1 -26.2584 161.266 TC -26.1315 161.253 7 5 91
1933066S22155 1933 5 SP MM NOT_NAMED 1933-03-10 06:00:00 NR -26.1909 161.514 main 638 627 ______P___P___ -1 -26.2242 161.522 TC -26.1576 161.506 7 4 86
1933066S22155 1933 5 SP MM NOT_NAMED 1933-03-10 09:00:00 NR -26.1617 161.757 main 622 607 ______P___P___ -1 -26.1879 161.766 TC -26.1354 161.748 7 4 80
1933066S22155 1933 5 SP MM NOT_NAMED 1933-03-10 11:00:00 NR -26.1313 161.911 main 607 602 ______P___O___ -1 -26.1627 161.922 TC -26.1000 161.900 7 4 77
1933066S22155 1933 5 SP MM NOT_NAMED 1933-03-10 12:00:00 NR -26.1136 161.986 main 602 592 ______P___P___ -1 -26.1498 161.999 TC -26.0774 161.973 7 4 73
1933066S22155 1933 5 SP MM NOT_NAMED 1933-03-10 15:00:00 NR -26.0521 162.204 main 592 573 ______P___P___ -1 -26.1102 162.224 TC -25.9939 162.184 7 4 71
1933066S22155 1933 5 SP MM NOT_NAMED 1933-03-10 18:00:00 NR -25.9808 162.413 main 573 552 ______P___P___ -1 -26.0695 162.443 TC -25.8921 162.383 7 4 68
1933066S22155 1933 5 SP MM NOT_NAMED 1933-03-10 21:00:00 NR -25.9033 162.616 main 552 546 ______P___P___ -1 -26.0280 162.658 TC -25.7787 162.574 7 4 67
1933066S22155 1933 5 SP MM NOT_NAMED 1933-03-10 23:00:00 NR -25.8500 162.750 bom main 531 ______O___O___ -1 -26.0000 162.800 TC -25.7000 162.700 7 4 66

Digital Typhoon Data and Search

About IBTrACS Database

This database is a web-friendly format of International Best Track Archive for Climate Stewardship (IBTrACS), a global best track data archive curated by NOAA dating back to 1842.

Updated: 2021-12-01